sensor_id;sensor_type;location;lat;lon;timestamp;P1;durP1;ratioP1;P2;durP2;ratioP2
63089;SDS011;49174;43.198;27.824;2023-08-07T00:00:26;18.83;;;12.30;;
63089;SDS011;49174;43.198;27.824;2023-08-07T00:02:59;20.48;;;11.85;;
63089;SDS011;49174;43.198;27.824;2023-08-07T00:05:25;14.30;;;10.10;;
63089;SDS011;49174;43.198;27.824;2023-08-07T00:07:50;16.25;;;10.57;;
63089;SDS011;49174;43.198;27.824;2023-08-07T00:10:16;14.90;;;9.60;;
63089;SDS011;49174;43.198;27.824;2023-08-07T00:12:42;16.27;;;10.25;;
63089;SDS011;49174;43.198;27.824;2023-08-07T00:15:08;15.65;;;10.45;;
63089;SDS011;49174;43.198;27.824;2023-08-07T00:17:34;14.18;;;9.80;;
63089;SDS011;49174;43.198;27.824;2023-08-07T00:20:00;13.35;;;9.50;;
63089;SDS011;49174;43.198;27.824;2023-08-07T00:22:25;17.00;;;10.40;;
63089;SDS011;49174;43.198;27.824;2023-08-07T00:24:51;15.48;;;9.70;;
63089;SDS011;49174;43.198;27.824;2023-08-07T00:27:19;15.80;;;10.35;;
63089;SDS011;49174;43.198;27.824;2023-08-07T00:29:45;16.83;;;11.25;;
63089;SDS011;49174;43.198;27.824;2023-08-07T00:32:10;15.75;;;10.82;;
63089;SDS011;49174;43.198;27.824;2023-08-07T00:34:36;16.33;;;10.43;;
63089;SDS011;49174;43.198;27.824;2023-08-07T00:37:01;19.40;;;11.77;;
63089;SDS011;49174;43.198;27.824;2023-08-07T00:39:27;19.38;;;12.32;;
63089;SDS011;49174;43.198;27.824;2023-08-07T00:41:53;19.80;;;12.93;;
63089;SDS011;49174;43.198;27.824;2023-08-07T00:44:19;23.02;;;13.40;;
63089;SDS011;49174;43.198;27.824;2023-08-07T00:46:45;16.45;;;11.50;;
63089;SDS011;49174;43.198;27.824;2023-08-07T00:49:11;17.52;;;12.07;;
63089;SDS011;49174;43.198;27.824;2023-08-07T00:51:38;10.93;;;8.43;;
63089;SDS011;49174;43.198;27.824;2023-08-07T00:54:05;15.68;;;8.38;;
63089;SDS011;49174;43.198;27.824;2023-08-07T00:56:32;11.23;;;9.32;;
63089;SDS011;49174;43.198;27.824;2023-08-07T00:58:59;15.05;;;10.30;;
63089;SDS011;49174;43.198;27.824;2023-08-07T01:01:26;23.23;;;14.45;;
63089;SDS011;49174;43.198;27.824;2023-08-07T01:03:52;23.92;;;13.25;;
63089;SDS011;49174;43.198;27.824;2023-08-07T01:06:18;20.67;;;14.25;;
63089;SDS011;49174;43.198;27.824;2023-08-07T01:08:43;20.73;;;14.27;;
63089;SDS011;49174;43.198;27.824;2023-08-07T01:16:48;19.13;;;12.50;;
63089;SDS011;49174;43.198;27.824;2023-08-07T01:19:34;13.77;;;9.48;;
63089;SDS011;49174;43.198;27.824;2023-08-07T01:22:08;16.70;;;8.68;;
63089;SDS011;49174;43.198;27.824;2023-08-07T01:24:41;9.05;;;7.07;;
63089;SDS011;49174;43.198;27.824;2023-08-07T01:27:19;7.25;;;5.75;;
63089;SDS011;49174;43.198;27.824;2023-08-07T01:35:49;6.85;;;5.50;;
63089;SDS011;49174;43.198;27.824;2023-08-07T01:38:18;7.57;;;5.80;;
63089;SDS011;49174;43.198;27.824;2023-08-07T01:40:47;9.80;;;6.57;;
63089;SDS011;49174;43.198;27.824;2023-08-07T01:43:14;6.38;;;5.15;;
63089;SDS011;49174;43.198;27.824;2023-08-07T01:45:39;7.05;;;5.30;;
63089;SDS011;49174;43.198;27.824;2023-08-07T01:48:05;8.77;;;5.00;;
63089;SDS011;49174;43.198;27.824;2023-08-07T01:50:30;6.25;;;5.18;;
63089;SDS011;49174;43.198;27.824;2023-08-07T01:52:56;8.70;;;5.22;;
63089;SDS011;49174;43.198;27.824;2023-08-07T01:55:22;6.90;;;4.93;;
63089;SDS011;49174;43.198;27.824;2023-08-07T01:57:48;6.40;;;5.43;;
63089;SDS011;49174;43.198;27.824;2023-08-07T02:00:14;6.90;;;4.70;;
63089;SDS011;49174;43.198;27.824;2023-08-07T02:02:40;11.43;;;5.72;;
63089;SDS011;49174;43.198;27.824;2023-08-07T02:05:05;6.70;;;5.30;;
63089;SDS011;49174;43.198;27.824;2023-08-07T02:07:31;7.75;;;5.15;;
63089;SDS011;49174;43.198;27.824;2023-08-07T02:09:57;7.32;;;4.90;;
63089;SDS011;49174;43.198;27.824;2023-08-07T02:12:23;8.95;;;5.20;;
63089;SDS011;49174;43.198;27.824;2023-08-07T02:14:49;6.38;;;4.75;;
63089;SDS011;49174;43.198;27.824;2023-08-07T02:17:15;6.60;;;5.13;;
63089;SDS011;49174;43.198;27.824;2023-08-07T02:19:42;6.50;;;4.43;;
63089;SDS011;49174;43.198;27.824;2023-08-07T02:22:08;6.45;;;4.72;;
63089;SDS011;49174;43.198;27.824;2023-08-07T02:24:34;6.00;;;4.43;;
63089;SDS011;49174;43.198;27.824;2023-08-07T02:26:59;6.90;;;4.80;;
63089;SDS011;49174;43.198;27.824;2023-08-07T02:29:25;7.68;;;5.43;;
63089;SDS011;49174;43.198;27.824;2023-08-07T02:31:50;8.15;;;4.90;;
63089;SDS011;49174;43.198;27.824;2023-08-07T02:34:16;8.75;;;5.30;;
63089;SDS011;49174;43.198;27.824;2023-08-07T02:36:41;7.10;;;4.78;;
63089;SDS011;49174;43.198;27.824;2023-08-07T02:39:07;6.50;;;4.65;;
63089;SDS011;49174;43.198;27.824;2023-08-07T02:41:32;7.30;;;4.63;;
63089;SDS011;49174;43.198;27.824;2023-08-07T02:43:58;5.57;;;4.22;;
63089;SDS011;49174;43.198;27.824;2023-08-07T02:46:23;5.68;;;4.72;;
63089;SDS011;49174;43.198;27.824;2023-08-07T02:48:49;5.88;;;4.82;;
63089;SDS011;49174;43.198;27.824;2023-08-07T02:51:14;5.80;;;4.10;;
63089;SDS011;49174;43.198;27.824;2023-08-07T02:53:40;5.32;;;3.90;;
63089;SDS011;49174;43.198;27.824;2023-08-07T02:56:06;6.25;;;3.83;;
63089;SDS011;49174;43.198;27.824;2023-08-07T02:58:31;4.38;;;3.72;;
63089;SDS011;49174;43.198;27.824;2023-08-07T03:01:02;5.20;;;3.72;;
63089;SDS011;49174;43.198;27.824;2023-08-07T03:03:28;4.90;;;3.85;;
63089;SDS011;49174;43.198;27.824;2023-08-07T03:05:54;4.75;;;3.70;;
63089;SDS011;49174;43.198;27.824;2023-08-07T03:08:19;4.88;;;3.45;;
63089;SDS011;49174;43.198;27.824;2023-08-07T03:10:54;6.60;;;3.65;;
63089;SDS011;49174;43.198;27.824;2023-08-07T03:13:21;5.50;;;3.42;;
63089;SDS011;49174;43.198;27.824;2023-08-07T03:15:47;5.10;;;3.70;;
63089;SDS011;49174;43.198;27.824;2023-08-07T03:18:15;4.18;;;3.38;;
63089;SDS011;49174;43.198;27.824;2023-08-07T03:20:42;5.18;;;3.60;;
63089;SDS011;49174;43.198;27.824;2023-08-07T03:23:10;4.75;;;3.17;;
63089;SDS011;49174;43.198;27.824;2023-08-07T03:25:36;4.90;;;3.22;;
63089;SDS011;49174;43.198;27.824;2023-08-07T03:28:02;6.03;;;3.30;;
63089;SDS011;49174;43.198;27.824;2023-08-07T03:30:28;3.65;;;3.00;;
63089;SDS011;49174;43.198;27.824;2023-08-07T03:32:54;4.63;;;3.30;;
63089;SDS011;49174;43.198;27.824;2023-08-07T03:35:19;4.28;;;3.20;;
63089;SDS011;49174;43.198;27.824;2023-08-07T03:37:45;5.40;;;3.20;;
63089;SDS011;49174;43.198;27.824;2023-08-07T03:40:10;5.05;;;3.67;;
63089;SDS011;49174;43.198;27.824;2023-08-07T03:42:36;5.20;;;3.67;;
63089;SDS011;49174;43.198;27.824;2023-08-07T03:45:01;5.20;;;3.10;;
63089;SDS011;49174;43.198;27.824;2023-08-07T03:47:27;4.93;;;2.85;;
63089;SDS011;49174;43.198;27.824;2023-08-07T03:49:53;4.40;;;2.92;;
63089;SDS011;49174;43.198;27.824;2023-08-07T03:52:18;5.35;;;3.30;;
63089;SDS011;49174;43.198;27.824;2023-08-07T03:54:44;3.88;;;3.00;;
63089;SDS011;49174;43.198;27.824;2023-08-07T03:57:09;4.90;;;3.33;;
63089;SDS011;49174;43.198;27.824;2023-08-07T03:59:36;3.83;;;2.88;;
63089;SDS011;49174;43.198;27.824;2023-08-07T04:02:02;5.47;;;3.10;;
63089;SDS011;49174;43.198;27.824;2023-08-07T04:04:28;5.20;;;3.15;;
63089;SDS011;49174;43.198;27.824;2023-08-07T04:06:53;4.20;;;3.17;;
63089;SDS011;49174;43.198;27.824;2023-08-07T04:09:19;3.90;;;2.85;;
63089;SDS011;49174;43.198;27.824;2023-08-07T04:11:44;4.22;;;3.15;;
63089;SDS011;49174;43.198;27.824;2023-08-07T04:14:10;4.35;;;3.00;;
63089;SDS011;49174;43.198;27.824;2023-08-07T04:16:36;4.03;;;3.10;;
63089;SDS011;49174;43.198;27.824;2023-08-07T04:19:02;3.95;;;2.72;;
63089;SDS011;49174;43.198;27.824;2023-08-07T04:21:28;4.40;;;2.42;;
63089;SDS011;49174;43.198;27.824;2023-08-07T04:23:55;3.90;;;2.80;;
63089;SDS011;49174;43.198;27.824;2023-08-07T04:26:20;4.25;;;2.75;;
63089;SDS011;49174;43.198;27.824;2023-08-07T04:28:46;3.15;;;2.40;;
63089;SDS011;49174;43.198;27.824;2023-08-07T04:31:11;3.90;;;2.33;;
63089;SDS011;49174;43.198;27.824;2023-08-07T04:33:37;3.15;;;2.35;;
63089;SDS011;49174;43.198;27.824;2023-08-07T04:36:03;3.17;;;2.22;;
63089;SDS011;49174;43.198;27.824;2023-08-07T04:38:29;4.65;;;1.83;;
63089;SDS011;49174;43.198;27.824;2023-08-07T04:40:54;2.25;;;1.80;;
63089;SDS011;49174;43.198;27.824;2023-08-07T04:43:20;1.95;;;1.63;;
63089;SDS011;49174;43.198;27.824;2023-08-07T04:45:45;3.05;;;2.10;;
63089;SDS011;49174;43.198;27.824;2023-08-07T04:48:11;1.92;;;1.50;;
63089;SDS011;49174;43.198;27.824;2023-08-07T04:50:37;2.97;;;2.03;;
63089;SDS011;49174;43.198;27.824;2023-08-07T04:53:04;3.78;;;2.08;;
63089;SDS011;49174;43.198;27.824;2023-08-07T04:55:30;2.85;;;1.92;;
63089;SDS011;49174;43.198;27.824;2023-08-07T04:58:04;1.98;;;1.55;;
63089;SDS011;49174;43.198;27.824;2023-08-07T05:00:30;3.95;;;1.52;;
63089;SDS011;49174;43.198;27.824;2023-08-07T05:02:56;4.55;;;2.10;;
63089;SDS011;49174;43.198;27.824;2023-08-07T05:05:21;2.47;;;1.50;;
63089;SDS011;49174;43.198;27.824;2023-08-07T05:07:49;4.35;;;1.50;;
63089;SDS011;49174;43.198;27.824;2023-08-07T05:10:15;3.03;;;1.88;;
63089;SDS011;49174;43.198;27.824;2023-08-07T05:12:40;3.50;;;1.50;;
63089;SDS011;49174;43.198;27.824;2023-08-07T05:15:06;2.47;;;1.50;;
63089;SDS011;49174;43.198;27.824;2023-08-07T05:17:32;1.83;;;1.38;;
63089;SDS011;49174;43.198;27.824;2023-08-07T05:19:57;5.00;;;1.60;;
63089;SDS011;49174;43.198;27.824;2023-08-07T05:22:23;3.95;;;1.58;;
63089;SDS011;49174;43.198;27.824;2023-08-07T05:24:48;1.95;;;1.38;;
63089;SDS011;49174;43.198;27.824;2023-08-07T05:27:14;1.92;;;1.38;;
63089;SDS011;49174;43.198;27.824;2023-08-07T05:29:40;1.75;;;1.30;;
63089;SDS011;49174;43.198;27.824;2023-08-07T05:32:12;2.90;;;1.55;;
63089;SDS011;49174;43.198;27.824;2023-08-07T05:34:39;1.80;;;1.30;;
63089;SDS011;49174;43.198;27.824;2023-08-07T05:37:05;4.00;;;1.30;;
63089;SDS011;49174;43.198;27.824;2023-08-07T05:39:31;1.52;;;1.33;;
63089;SDS011;49174;43.198;27.824;2023-08-07T05:41:57;3.38;;;1.40;;
63089;SDS011;49174;43.198;27.824;2023-08-07T05:44:23;2.25;;;1.40;;
63089;SDS011;49174;43.198;27.824;2023-08-07T05:46:49;5.30;;;1.45;;
63089;SDS011;49174;43.198;27.824;2023-08-07T05:49:15;5.75;;;1.00;;
63089;SDS011;49174;43.198;27.824;2023-08-07T05:51:41;1.73;;;1.33;;
63089;SDS011;49174;43.198;27.824;2023-08-07T05:54:06;1.50;;;1.25;;
63089;SDS011;49174;43.198;27.824;2023-08-07T05:56:32;2.80;;;1.83;;
63089;SDS011;49174;43.198;27.824;2023-08-07T05:58:58;1.40;;;1.00;;
63089;SDS011;49174;43.198;27.824;2023-08-07T06:01:23;1.52;;;1.00;;
63089;SDS011;49174;43.198;27.824;2023-08-07T06:03:54;1.00;;;0.90;;
63089;SDS011;49174;43.198;27.824;2023-08-07T06:06:20;3.55;;;1.23;;
63089;SDS011;49174;43.198;27.824;2023-08-07T06:08:45;1.15;;;1.00;;
63089;SDS011;49174;43.198;27.824;2023-08-07T06:11:11;0.85;;;0.73;;
63089;SDS011;49174;43.198;27.824;2023-08-07T06:13:39;2.33;;;1.10;;
63089;SDS011;49174;43.198;27.824;2023-08-07T06:16:05;1.25;;;1.10;;
63089;SDS011;49174;43.198;27.824;2023-08-07T06:18:31;1.08;;;0.88;;
63089;SDS011;49174;43.198;27.824;2023-08-07T06:20:57;1.67;;;1.23;;
63089;SDS011;49174;43.198;27.824;2023-08-07T06:23:22;1.73;;;1.27;;
63089;SDS011;49174;43.198;27.824;2023-08-07T06:25:48;4.38;;;1.05;;
63089;SDS011;49174;43.198;27.824;2023-08-07T06:28:14;1.70;;;1.10;;
63089;SDS011;49174;43.198;27.824;2023-08-07T06:30:39;1.20;;;1.00;;
63089;SDS011;49174;43.198;27.824;2023-08-07T06:33:05;1.20;;;0.90;;
63089;SDS011;49174;43.198;27.824;2023-08-07T06:35:30;2.00;;;1.08;;
63089;SDS011;49174;43.198;27.824;2023-08-07T06:37:56;3.92;;;1.00;;
63089;SDS011;49174;43.198;27.824;2023-08-07T06:40:21;9.00;;;1.55;;
63089;SDS011;49174;43.198;27.824;2023-08-07T06:42:47;1.83;;;1.10;;
63089;SDS011;49174;43.198;27.824;2023-08-07T06:45:12;5.18;;;0.95;;
63089;SDS011;49174;43.198;27.824;2023-08-07T06:47:38;5.93;;;0.98;;
63089;SDS011;49174;43.198;27.824;2023-08-07T06:50:04;1.92;;;1.10;;
63089;SDS011;49174;43.198;27.824;2023-08-07T06:52:33;1.45;;;1.05;;
63089;SDS011;49174;43.198;27.824;2023-08-07T06:54:58;1.23;;;1.10;;
63089;SDS011;49174;43.198;27.824;2023-08-07T06:57:24;2.75;;;1.13;;
63089;SDS011;49174;43.198;27.824;2023-08-07T06:59:49;3.63;;;2.15;;
63089;SDS011;49174;43.198;27.824;2023-08-07T07:02:15;2.92;;;1.00;;
63089;SDS011;49174;43.198;27.824;2023-08-07T07:04:41;1.13;;;0.88;;
63089;SDS011;49174;43.198;27.824;2023-08-07T07:07:06;3.08;;;0.80;;
63089;SDS011;49174;43.198;27.824;2023-08-07T07:09:32;1.23;;;0.98;;
63089;SDS011;49174;43.198;27.824;2023-08-07T07:11:57;2.00;;;0.70;;
63089;SDS011;49174;43.198;27.824;2023-08-07T07:14:23;3.60;;;0.90;;
63089;SDS011;49174;43.198;27.824;2023-08-07T07:16:49;1.20;;;0.90;;
63089;SDS011;49174;43.198;27.824;2023-08-07T07:19:14;1.02;;;0.95;;
63089;SDS011;49174;43.198;27.824;2023-08-07T07:21:41;1.73;;;1.00;;
63089;SDS011;49174;43.198;27.824;2023-08-07T07:24:07;7.45;;;1.20;;
63089;SDS011;49174;43.198;27.824;2023-08-07T07:26:32;0.77;;;0.77;;
63089;SDS011;49174;43.198;27.824;2023-08-07T07:28:58;1.42;;;0.93;;
63089;SDS011;49174;43.198;27.824;2023-08-07T07:31:23;1.55;;;0.77;;
63089;SDS011;49174;43.198;27.824;2023-08-07T07:33:49;1.33;;;0.98;;
63089;SDS011;49174;43.198;27.824;2023-08-07T07:36:17;1.25;;;1.13;;
63089;SDS011;49174;43.198;27.824;2023-08-07T07:38:47;1.10;;;1.00;;
63089;SDS011;49174;43.198;27.824;2023-08-07T07:41:13;1.63;;;0.80;;
63089;SDS011;49174;43.198;27.824;2023-08-07T07:43:40;2.65;;;0.90;;
63089;SDS011;49174;43.198;27.824;2023-08-07T07:46:05;2.58;;;0.75;;
63089;SDS011;49174;43.198;27.824;2023-08-07T07:48:31;1.67;;;1.58;;
63089;SDS011;49174;43.198;27.824;2023-08-07T07:50:59;2.42;;;0.90;;
63089;SDS011;49174;43.198;27.824;2023-08-07T07:53:29;2.08;;;0.90;;
63089;SDS011;49174;43.198;27.824;2023-08-07T07:55:55;5.07;;;1.20;;
63089;SDS011;49174;43.198;27.824;2023-08-07T07:58:21;1.08;;;0.98;;
63089;SDS011;49174;43.198;27.824;2023-08-07T08:00:47;1.13;;;0.82;;
63089;SDS011;49174;43.198;27.824;2023-08-07T08:03:12;1.73;;;1.05;;
63089;SDS011;49174;43.198;27.824;2023-08-07T08:05:38;3.83;;;0.85;;
63089;SDS011;49174;43.198;27.824;2023-08-07T08:08:07;1.10;;;1.00;;
63089;SDS011;49174;43.198;27.824;2023-08-07T08:10:33;1.85;;;1.20;;
63089;SDS011;49174;43.198;27.824;2023-08-07T08:13:01;3.83;;;1.02;;
63089;SDS011;49174;43.198;27.824;2023-08-07T08:15:29;5.95;;;1.95;;
63089;SDS011;49174;43.198;27.824;2023-08-07T08:17:55;2.83;;;1.70;;
63089;SDS011;49174;43.198;27.824;2023-08-07T08:20:20;2.80;;;1.55;;
63089;SDS011;49174;43.198;27.824;2023-08-07T08:22:46;1.80;;;1.50;;
63089;SDS011;49174;43.198;27.824;2023-08-07T08:25:12;2.05;;;1.58;;
63089;SDS011;49174;43.198;27.824;2023-08-07T08:27:38;4.68;;;1.15;;
63089;SDS011;49174;43.198;27.824;2023-08-07T08:30:05;2.97;;;1.10;;
63089;SDS011;49174;43.198;27.824;2023-08-07T08:32:30;1.20;;;1.00;;
63089;SDS011;49174;43.198;27.824;2023-08-07T08:34:56;2.60;;;0.93;;
63089;SDS011;49174;43.198;27.824;2023-08-07T08:37:22;1.95;;;1.48;;
63089;SDS011;49174;43.198;27.824;2023-08-07T08:39:48;1.33;;;1.13;;
63089;SDS011;49174;43.198;27.824;2023-08-07T08:42:13;2.33;;;1.00;;
63089;SDS011;49174;43.198;27.824;2023-08-07T08:44:40;2.15;;;0.98;;
63089;SDS011;49174;43.198;27.824;2023-08-07T08:47:06;2.35;;;1.02;;
63089;SDS011;49174;43.198;27.824;2023-08-07T08:49:35;2.13;;;1.30;;
63089;SDS011;49174;43.198;27.824;2023-08-07T08:52:06;1.70;;;0.98;;
63089;SDS011;49174;43.198;27.824;2023-08-07T08:54:32;1.20;;;1.10;;
63089;SDS011;49174;43.198;27.824;2023-08-07T08:56:58;3.83;;;1.42;;
63089;SDS011;49174;43.198;27.824;2023-08-07T08:59:24;3.38;;;1.25;;
63089;SDS011;49174;43.198;27.824;2023-08-07T09:01:51;2.05;;;1.27;;
63089;SDS011;49174;43.198;27.824;2023-08-07T09:04:18;12.27;;;9.55;;
63089;SDS011;49174;43.198;27.824;2023-08-07T09:06:43;2.95;;;1.40;;
63089;SDS011;49174;43.198;27.824;2023-08-07T09:09:09;2.95;;;1.20;;
63089;SDS011;49174;43.198;27.824;2023-08-07T09:11:38;3.58;;;1.27;;
63089;SDS011;49174;43.198;27.824;2023-08-07T09:14:08;1.08;;;0.95;;
63089;SDS011;49174;43.198;27.824;2023-08-07T09:16:38;2.15;;;1.23;;
63089;SDS011;49174;43.198;27.824;2023-08-07T09:19:04;3.35;;;1.30;;
63089;SDS011;49174;43.198;27.824;2023-08-07T09:21:29;4.32;;;1.40;;
63089;SDS011;49174;43.198;27.824;2023-08-07T09:23:55;1.33;;;0.90;;
63089;SDS011;49174;43.198;27.824;2023-08-07T09:26:23;3.17;;;1.25;;
63089;SDS011;49174;43.198;27.824;2023-08-07T09:28:50;1.58;;;1.30;;
63089;SDS011;49174;43.198;27.824;2023-08-07T09:31:18;4.85;;;1.30;;
63089;SDS011;49174;43.198;27.824;2023-08-07T09:33:46;1.83;;;1.10;;
63089;SDS011;49174;43.198;27.824;2023-08-07T09:36:12;3.17;;;1.10;;
63089;SDS011;49174;43.198;27.824;2023-08-07T09:38:37;3.13;;;1.20;;
63089;SDS011;49174;43.198;27.824;2023-08-07T09:41:03;3.97;;;1.40;;
63089;SDS011;49174;43.198;27.824;2023-08-07T09:43:29;3.95;;;1.20;;
63089;SDS011;49174;43.198;27.824;2023-08-07T09:46:03;1.77;;;1.20;;
63089;SDS011;49174;43.198;27.824;2023-08-07T09:48:32;1.98;;;1.08;;
63089;SDS011;49174;43.198;27.824;2023-08-07T09:51:05;1.23;;;1.00;;
63089;SDS011;49174;43.198;27.824;2023-08-07T09:53:30;1.17;;;1.08;;
63089;SDS011;49174;43.198;27.824;2023-08-07T09:55:57;2.17;;;1.65;;
63089;SDS011;49174;43.198;27.824;2023-08-07T09:58:23;2.83;;;1.30;;
63089;SDS011;49174;43.198;27.824;2023-08-07T10:00:49;2.67;;;1.70;;
63089;SDS011;49174;43.198;27.824;2023-08-07T10:03:19;3.83;;;1.27;;
63089;SDS011;49174;43.198;27.824;2023-08-07T10:05:46;1.42;;;1.20;;
63089;SDS011;49174;43.198;27.824;2023-08-07T10:08:12;1.33;;;1.23;;
63089;SDS011;49174;43.198;27.824;2023-08-07T10:10:38;2.38;;;0.90;;
63089;SDS011;49174;43.198;27.824;2023-08-07T10:13:04;1.38;;;1.27;;
63089;SDS011;49174;43.198;27.824;2023-08-07T10:15:31;1.27;;;1.15;;
63089;SDS011;49174;43.198;27.824;2023-08-07T10:18:02;2.25;;;1.27;;
63089;SDS011;49174;43.198;27.824;2023-08-07T10:20:46;2.40;;;1.55;;
63089;SDS011;49174;43.198;27.824;2023-08-07T10:23:12;2.28;;;1.30;;
63089;SDS011;49174;43.198;27.824;2023-08-07T10:25:41;1.85;;;1.30;;
63089;SDS011;49174;43.198;27.824;2023-08-07T10:28:09;1.48;;;1.10;;
63089;SDS011;49174;43.198;27.824;2023-08-07T10:30:39;1.27;;;1.17;;
63089;SDS011;49174;43.198;27.824;2023-08-07T10:33:07;3.88;;;1.23;;
63089;SDS011;49174;43.198;27.824;2023-08-07T10:35:35;1.45;;;1.10;;
63089;SDS011;49174;43.198;27.824;2023-08-07T10:38:07;2.45;;;1.05;;
63089;SDS011;49174;43.198;27.824;2023-08-07T10:40:34;2.15;;;1.80;;
63089;SDS011;49174;43.198;27.824;2023-08-07T10:43:23;1.67;;;0.90;;
63089;SDS011;49174;43.198;27.824;2023-08-07T10:45:50;4.32;;;1.00;;
63089;SDS011;49174;43.198;27.824;2023-08-07T10:48:20;2.72;;;1.20;;
63089;SDS011;49174;43.198;27.824;2023-08-07T10:56:03;1.45;;;1.00;;
63089;SDS011;49174;43.198;27.824;2023-08-07T10:58:38;1.85;;;1.20;;
63089;SDS011;49174;43.198;27.824;2023-08-07T11:04:05;1.63;;;1.17;;
63089;SDS011;49174;43.198;27.824;2023-08-07T11:06:36;1.00;;;0.90;;
63089;SDS011;49174;43.198;27.824;2023-08-07T11:09:04;2.78;;;1.17;;
63089;SDS011;49174;43.198;27.824;2023-08-07T11:11:38;4.53;;;1.10;;
63089;SDS011;49174;43.198;27.824;2023-08-07T11:14:08;3.17;;;1.25;;
63089;SDS011;49174;43.198;27.824;2023-08-07T11:16:34;1.30;;;1.20;;
63089;SDS011;49174;43.198;27.824;2023-08-07T11:19:00;1.23;;;1.13;;
63089;SDS011;49174;43.198;27.824;2023-08-07T11:21:25;2.83;;;1.10;;
63089;SDS011;49174;43.198;27.824;2023-08-07T11:23:51;2.78;;;1.08;;
63089;SDS011;49174;43.198;27.824;2023-08-07T11:26:17;1.83;;;1.10;;
63089;SDS011;49174;43.198;27.824;2023-08-07T11:28:47;2.35;;;1.10;;
63089;SDS011;49174;43.198;27.824;2023-08-07T11:31:12;1.30;;;0.90;;
63089;SDS011;49174;43.198;27.824;2023-08-07T11:33:40;1.52;;;1.10;;
63089;SDS011;49174;43.198;27.824;2023-08-07T11:36:12;1.23;;;1.00;;
63089;SDS011;49174;43.198;27.824;2023-08-07T11:38:43;1.50;;;1.10;;
63089;SDS011;49174;43.198;27.824;2023-08-07T11:41:10;1.23;;;1.10;;
63089;SDS011;49174;43.198;27.824;2023-08-07T11:43:37;2.10;;;1.20;;
63089;SDS011;49174;43.198;27.824;2023-08-07T11:46:04;5.15;;;1.17;;
63089;SDS011;49174;43.198;27.824;2023-08-07T11:48:32;1.77;;;1.02;;
63089;SDS011;49174;43.198;27.824;2023-08-07T11:50:59;3.20;;;1.10;;
63089;SDS011;49174;43.198;27.824;2023-08-07T11:53:26;3.53;;;1.60;;
63089;SDS011;49174;43.198;27.824;2023-08-07T11:56:04;3.20;;;1.08;;
63089;SDS011;49174;43.198;27.824;2023-08-07T11:58:44;2.08;;;1.02;;
63089;SDS011;49174;43.198;27.824;2023-08-07T12:04:21;2.03;;;1.00;;
63089;SDS011;49174;43.198;27.824;2023-08-07T12:06:30;1.45;;;1.10;;
63089;SDS011;49174;43.198;27.824;2023-08-07T12:08:56;1.58;;;1.20;;
63089;SDS011;49174;43.198;27.824;2023-08-07T12:11:23;1.60;;;1.33;;
63089;SDS011;49174;43.198;27.824;2023-08-07T12:13:49;1.40;;;1.08;;
63089;SDS011;49174;43.198;27.824;2023-08-07T12:16:15;4.20;;;1.02;;
63089;SDS011;49174;43.198;27.824;2023-08-07T12:18:48;1.65;;;1.08;;
63089;SDS011;49174;43.198;27.824;2023-08-07T12:21:20;1.13;;;1.02;;
63089;SDS011;49174;43.198;27.824;2023-08-07T12:23:56;2.72;;;1.00;;
63089;SDS011;49174;43.198;27.824;2023-08-07T12:26:22;1.83;;;1.20;;
63089;SDS011;49174;43.198;27.824;2023-08-07T12:28:48;3.03;;;0.90;;
63089;SDS011;49174;43.198;27.824;2023-08-07T12:31:14;3.00;;;1.15;;
63089;SDS011;49174;43.198;27.824;2023-08-07T12:33:40;1.27;;;1.00;;
63089;SDS011;49174;43.198;27.824;2023-08-07T12:36:05;2.78;;;1.20;;
63089;SDS011;49174;43.198;27.824;2023-08-07T12:38:33;1.52;;;1.17;;
63089;SDS011;49174;43.198;27.824;2023-08-07T12:40:59;1.35;;;1.10;;
63089;SDS011;49174;43.198;27.824;2023-08-07T12:43:24;2.67;;;1.23;;
63089;SDS011;49174;43.198;27.824;2023-08-07T12:45:50;2.17;;;1.60;;
63089;SDS011;49174;43.198;27.824;2023-08-07T12:48:17;1.80;;;1.20;;
63089;SDS011;49174;43.198;27.824;2023-08-07T12:50:44;0.90;;;0.77;;
63089;SDS011;49174;43.198;27.824;2023-08-07T12:53:11;1.80;;;1.08;;
63089;SDS011;49174;43.198;27.824;2023-08-07T12:55:37;2.10;;;1.20;;
63089;SDS011;49174;43.198;27.824;2023-08-07T12:58:02;1.90;;;0.95;;
63089;SDS011;49174;43.198;27.824;2023-08-07T13:00:28;2.10;;;0.85;;
63089;SDS011;49174;43.198;27.824;2023-08-07T13:02:54;1.20;;;1.00;;
63089;SDS011;49174;43.198;27.824;2023-08-07T13:05:21;1.08;;;0.75;;
63089;SDS011;49174;43.198;27.824;2023-08-07T13:07:47;2.30;;;1.23;;
63089;SDS011;49174;43.198;27.824;2023-08-07T13:10:14;5.93;;;1.08;;
63089;SDS011;49174;43.198;27.824;2023-08-07T13:12:42;0.88;;;0.85;;
63089;SDS011;49174;43.198;27.824;2023-08-07T13:15:09;1.70;;;0.93;;
63089;SDS011;49174;43.198;27.824;2023-08-07T13:17:38;1.85;;;0.90;;
63089;SDS011;49174;43.198;27.824;2023-08-07T13:20:04;0.93;;;0.80;;
63089;SDS011;49174;43.198;27.824;2023-08-07T13:22:34;1.80;;;1.27;;
63089;SDS011;49174;43.198;27.824;2023-08-07T13:25:00;2.28;;;0.88;;
63089;SDS011;49174;43.198;27.824;2023-08-07T13:27:26;2.22;;;1.10;;
63089;SDS011;49174;43.198;27.824;2023-08-07T13:29:52;1.58;;;1.30;;
63089;SDS011;49174;43.198;27.824;2023-08-07T13:32:17;1.25;;;0.98;;
63089;SDS011;49174;43.198;27.824;2023-08-07T13:34:45;1.67;;;1.17;;
63089;SDS011;49174;43.198;27.824;2023-08-07T13:37:11;1.25;;;1.08;;
63089;SDS011;49174;43.198;27.824;2023-08-07T13:39:36;2.50;;;1.20;;
63089;SDS011;49174;43.198;27.824;2023-08-07T13:42:02;1.75;;;1.17;;
63089;SDS011;49174;43.198;27.824;2023-08-07T13:44:28;3.28;;;1.55;;
63089;SDS011;49174;43.198;27.824;2023-08-07T13:46:54;3.50;;;1.23;;
63089;SDS011;49174;43.198;27.824;2023-08-07T13:49:21;0.68;;;0.68;;
63089;SDS011;49174;43.198;27.824;2023-08-07T13:51:48;1.75;;;0.70;;
63089;SDS011;49174;43.198;27.824;2023-08-07T13:54:14;0.98;;;0.73;;
63089;SDS011;49174;43.198;27.824;2023-08-07T13:56:40;1.67;;;1.48;;
63089;SDS011;49174;43.198;27.824;2023-08-07T13:59:05;0.95;;;0.88;;
63089;SDS011;49174;43.198;27.824;2023-08-07T14:01:31;1.40;;;1.17;;
63089;SDS011;49174;43.198;27.824;2023-08-07T14:03:58;1.30;;;0.93;;
63089;SDS011;49174;43.198;27.824;2023-08-07T14:06:23;2.05;;;1.02;;
63089;SDS011;49174;43.198;27.824;2023-08-07T14:08:49;2.58;;;1.00;;
63089;SDS011;49174;43.198;27.824;2023-08-07T14:11:14;1.00;;;0.90;;
63089;SDS011;49174;43.198;27.824;2023-08-07T14:13:41;1.42;;;1.13;;
63089;SDS011;49174;43.198;27.824;2023-08-07T14:16:06;1.38;;;1.00;;
63089;SDS011;49174;43.198;27.824;2023-08-07T14:18:32;3.58;;;1.60;;
63089;SDS011;49174;43.198;27.824;2023-08-07T14:20:58;1.05;;;0.90;;
63089;SDS011;49174;43.198;27.824;2023-08-07T14:23:24;1.50;;;1.08;;
63089;SDS011;49174;43.198;27.824;2023-08-07T14:25:49;1.77;;;1.10;;
63089;SDS011;49174;43.198;27.824;2023-08-07T14:28:19;1.75;;;1.17;;
63089;SDS011;49174;43.198;27.824;2023-08-07T14:30:44;1.73;;;1.20;;
63089;SDS011;49174;43.198;27.824;2023-08-07T14:33:11;1.52;;;1.00;;
63089;SDS011;49174;43.198;27.824;2023-08-07T14:35:36;0.73;;;0.70;;
63089;SDS011;49174;43.198;27.824;2023-08-07T14:38:01;1.08;;;0.90;;
63089;SDS011;49174;43.198;27.824;2023-08-07T14:40:27;1.48;;;0.90;;
63089;SDS011;49174;43.198;27.824;2023-08-07T14:42:53;1.48;;;0.90;;
63089;SDS011;49174;43.198;27.824;2023-08-07T14:45:20;2.35;;;1.00;;
63089;SDS011;49174;43.198;27.824;2023-08-07T14:47:46;1.25;;;0.95;;
63089;SDS011;49174;43.198;27.824;2023-08-07T14:50:11;1.95;;;1.05;;
63089;SDS011;49174;43.198;27.824;2023-08-07T14:52:37;1.50;;;1.13;;